createdAt,value
2022-08-22T00:02:35.308Z,60.90
2022-08-22T00:02:49.120Z,49.23
2022-08-22T00:02:58.681Z,55.51
2022-08-22T00:03:07.733Z,57.87
2022-08-22T00:03:08.632Z,47.54
2022-08-22T00:05:10.924Z,61.18
2022-08-22T00:07:47.477Z,61.21
2022-08-22T00:10:24.934Z,61.62
2022-08-22T00:12:59.669Z,61.52
2022-08-22T00:15:42.876Z,61.86
2022-08-22T00:18:16.560Z,61.94
2022-08-22T00:20:47.829Z,62.12
2022-08-22T00:23:20.011Z,62.27
2022-08-22T00:25:54.961Z,62.26
2022-08-22T00:28:26.316Z,62.60
2022-08-22T00:31:02.729Z,62.64
2022-08-22T00:33:41.618Z,62.95
2022-08-22T00:36:20.447Z,62.78
2022-08-22T00:38:54.197Z,63.03
2022-08-22T00:41:49.581Z,63.05
2022-08-22T00:44:54.664Z,63.20
2022-08-22T00:47:45.230Z,63.19
2022-08-22T00:50:39.681Z,63.43
2022-08-22T00:53:41.674Z,63.60
2022-08-22T00:56:52.585Z,63.72
2022-08-22T00:59:48.786Z,63.68
2022-08-22T01:02:32.810Z,63.80
2022-08-22T01:05:21.194Z,63.89
2022-08-22T01:08:04.139Z,63.89
2022-08-22T01:10:43.548Z,63.97
2022-08-22T01:13:29.986Z,64.10
2022-08-22T01:16:06.694Z,64.50
2022-08-22T01:18:57.344Z,64.54
2022-08-22T01:21:56.521Z,64.82
2022-08-22T01:25:25.804Z,65.03
2022-08-22T01:28:16.437Z,65.21
2022-08-22T01:31:01.257Z,65.21
2022-08-22T01:34:13.153Z,65.08
2022-08-22T01:37:04.710Z,65.62
2022-08-22T01:39:56.655Z,65.58
2022-08-22T01:42:52.805Z,65.67
2022-08-22T01:45:42.664Z,65.93
2022-08-22T01:48:17.900Z,65.97
2022-08-22T01:50:50.349Z,66.14
2022-08-22T01:53:25.512Z,66.08
2022-08-22T01:56:04.171Z,66.00
2022-08-22T01:58:34.530Z,66.24
2022-08-22T02:01:18.134Z,66.42
2022-08-22T02:03:57.515Z,66.56
2022-08-22T02:06:35.875Z,66.55
2022-08-22T02:09:10.467Z,66.82
2022-08-22T02:11:48.422Z,66.96
2022-08-22T02:14:27.810Z,67.11
2022-08-22T02:16:59.879Z,67.26
2022-08-22T02:19:37.903Z,67.48
2022-08-22T02:22:19.127Z,67.61
2022-08-22T02:24:55.577Z,67.75
2022-08-22T02:27:32.290Z,67.83
2022-08-22T02:30:06.541Z,68.08
2022-08-22T02:32:46.067Z,68.09
2022-08-22T02:35:23.608Z,68.50
2022-08-22T02:38:02.572Z,68.75
2022-08-22T02:40:38.855Z,69.00
2022-08-22T02:43:18.071Z,68.90
2022-08-22T02:45:52.251Z,69.16
2022-08-22T02:48:35.586Z,69.23
2022-08-22T02:51:12.012Z,69.40
2022-08-22T02:53:50.088Z,69.50
2022-08-22T02:56:23.627Z,69.62
2022-08-22T02:58:57.037Z,69.64
2022-08-22T03:01:40.809Z,69.93
2022-08-22T03:04:53.047Z,69.89
2022-08-22T03:07:32.262Z,69.99
2022-08-22T03:10:12.039Z,70.28
2022-08-22T03:12:57.420Z,70.52
2022-08-22T03:15:34.092Z,70.72
2022-08-22T03:18:06.969Z,70.77
2022-08-22T03:20:50.505Z,71.17
2022-08-22T03:23:29.163Z,71.58
2022-08-22T03:26:07.673Z,71.66
2022-08-22T03:28:59.103Z,71.61
2022-08-22T03:31:29.817Z,71.93
2022-08-22T03:34:17.562Z,71.88
2022-08-22T03:36:49.090Z,72.14
2022-08-22T03:39:25.940Z,72.02
2022-08-22T03:42:14.486Z,71.78
2022-08-22T03:45:10.415Z,72.25
2022-08-22T03:48:02.373Z,72.30
2022-08-22T03:50:56.887Z,72.52
2022-08-22T03:54:06.299Z,72.76
2022-08-22T03:57:20.053Z,72.58
2022-08-22T04:00:07.938Z,72.56
2022-08-22T04:03:16.935Z,72.59
2022-08-22T04:06:14.501Z,72.47
2022-08-22T04:09:21.747Z,72.80
2022-08-22T04:12:28.074Z,72.82
2022-08-22T04:15:24.805Z,72.88
2022-08-22T04:18:28.973Z,73.12
2022-08-22T04:21:22.572Z,73.26
2022-08-22T04:24:08.119Z,73.28
2022-08-22T04:26:43.710Z,73.19
2022-08-22T04:29:19.396Z,73.56
2022-08-22T04:31:52.831Z,73.54
2022-08-22T04:34:27.976Z,73.41
2022-08-22T04:37:00.769Z,73.57
2022-08-22T04:39:35.735Z,73.36
2022-08-22T04:42:31.320Z,73.35
2022-08-22T04:45:01.961Z,73.54
2022-08-22T04:47:34.879Z,73.56
2022-08-22T04:50:10.756Z,73.36
2022-08-22T04:52:56.336Z,73.33
2022-08-22T04:55:33.446Z,73.33
2022-08-22T04:58:12.000Z,73.30
2022-08-22T05:00:43.661Z,73.28
2022-08-22T05:03:16.632Z,73.17
2022-08-22T05:05:49.321Z,73.01
2022-08-22T05:08:25.125Z,73.04
2022-08-22T05:10:54.485Z,72.84
2022-08-22T05:13:28.055Z,72.71
2022-08-22T05:15:59.219Z,72.67
2022-08-22T05:18:30.500Z,72.49
2022-08-22T05:21:04.283Z,72.37
2022-08-22T05:23:39.451Z,72.21
2022-08-22T05:26:08.770Z,72.08
2022-08-22T05:28:40.420Z,71.73
2022-08-22T05:31:12.934Z,71.50
2022-08-22T05:33:44.064Z,71.43
2022-08-22T05:36:17.082Z,71.17
2022-08-22T05:38:50.344Z,70.73
2022-08-22T05:41:23.706Z,70.38
2022-08-22T05:43:52.681Z,70.49
2022-08-22T05:46:26.888Z,70.28
2022-08-22T05:49:00.076Z,70.03
2022-08-22T05:51:36.162Z,69.99
2022-08-22T05:54:12.560Z,70.15
2022-08-22T05:56:45.101Z,70.08
2022-08-22T05:59:23.587Z,70.00
2022-08-22T06:02:03.577Z,70.06
2022-08-22T06:04:37.083Z,70.04
2022-08-22T06:07:12.947Z,70.00
2022-08-22T06:10:06.767Z,70.15
2022-08-22T06:12:38.944Z,69.99
2022-08-22T06:15:20.935Z,70.07
2022-08-22T06:17:51.731Z,70.10
2022-08-22T06:20:23.688Z,70.07
2022-08-22T06:22:55.166Z,70.00
2022-08-22T06:25:26.759Z,69.81
2022-08-22T06:27:56.995Z,70.03
2022-08-22T06:30:28.368Z,69.61
2022-08-22T06:33:02.030Z,69.30
2022-08-22T06:35:54.712Z,69.05
2022-08-22T06:38:28.339Z,68.88
2022-08-22T06:40:58.098Z,68.76
2022-08-22T06:43:26.486Z,68.71
2022-08-22T06:45:54.746Z,68.40
2022-08-22T06:48:24.862Z,68.66
2022-08-22T06:50:57.364Z,68.31
2022-08-22T06:53:32.627Z,68.13
2022-08-22T06:56:05.427Z,67.90
2022-08-22T06:58:38.364Z,67.51
2022-08-22T07:01:12.154Z,67.42
2022-08-22T07:03:44.611Z,67.61
2022-08-22T07:06:15.745Z,67.67
2022-08-22T07:08:45.936Z,67.58
2022-08-22T07:11:18.302Z,67.29
2022-08-22T07:13:48.861Z,66.86
2022-08-22T07:16:18.313Z,66.65
2022-08-22T07:18:50.914Z,66.96
2022-08-22T07:21:27.798Z,66.57
2022-08-22T07:24:00.835Z,66.60
2022-08-22T07:26:35.349Z,66.11
2022-08-22T07:29:11.525Z,65.99
2022-08-22T07:31:46.548Z,65.32
2022-08-22T07:34:33.052Z,65.16
2022-08-22T07:37:06.688Z,64.61
2022-08-22T07:39:41.818Z,64.46
2022-08-22T07:42:16.013Z,64.53
2022-08-22T07:45:00.470Z,64.43
2022-08-22T07:47:36.956Z,63.68
2022-08-22T07:50:08.436Z,63.22
2022-08-22T07:52:43.397Z,62.87
2022-08-22T07:55:19.937Z,62.93
2022-08-22T07:57:54.464Z,62.42
2022-08-22T08:00:23.771Z,62.12
2022-08-22T08:02:54.122Z,61.73
2022-08-22T08:05:24.470Z,61.30
2022-08-22T08:07:54.943Z,60.93
2022-08-22T08:10:29.307Z,61.45
2022-08-22T08:13:06.071Z,61.16
2022-08-22T08:15:36.865Z,60.85
2022-08-22T08:18:07.680Z,60.94
2022-08-22T08:20:37.193Z,61.30
2022-08-22T08:23:07.974Z,61.25
2022-08-22T08:25:53.827Z,61.38
2022-08-22T08:28:37.641Z,60.70
2022-08-22T08:31:14.053Z,60.58
2022-08-22T08:33:45.214Z,60.16
2022-08-22T08:36:27.826Z,59.21
2022-08-22T08:39:02.626Z,59.32
2022-08-22T08:41:54.103Z,58.69
2022-08-22T08:44:40.025Z,58.42
2022-08-22T08:47:37.459Z,57.25
2022-08-22T08:50:31.347Z,56.46
2022-08-22T08:53:24.325Z,54.60
2022-08-22T08:55:58.683Z,55.02
2022-08-22T08:58:35.285Z,53.89
2022-08-22T09:01:27.681Z,53.96
2022-08-22T09:04:42.460Z,53.89
2022-08-22T09:07:43.548Z,53.78
2022-08-22T09:10:52.605Z,52.60
2022-08-22T09:13:50.099Z,52.01
2022-08-22T09:16:46.219Z,52.65
2022-08-22T09:19:49.315Z,51.55
2022-08-22T09:22:53.973Z,50.99
2022-08-22T09:25:38.541Z,50.24
2022-08-22T09:28:17.637Z,50.48
2022-08-22T09:31:44.869Z,48.05
2022-08-22T09:34:23.833Z,49.57
2022-08-22T09:37:07.844Z,48.96
2022-08-22T09:39:43.934Z,48.71
2022-08-22T09:42:22.572Z,48.07
2022-08-22T09:45:00.440Z,48.54
2022-08-22T09:47:34.014Z,48.09
2022-08-22T09:50:13.149Z,47.23
2022-08-22T09:53:04.802Z,46.77
2022-08-22T09:55:43.903Z,46.70
2022-08-22T09:58:23.553Z,45.37
2022-08-22T10:00:57.797Z,45.81
2022-08-22T10:03:53.593Z,45.71
2022-08-22T10:06:27.866Z,45.41
2022-08-22T10:09:05.232Z,45.41
2022-08-22T10:11:43.278Z,45.57
2022-08-22T10:14:22.173Z,44.87
2022-08-22T10:17:03.408Z,43.50
2022-08-22T10:19:38.241Z,43.71
2022-08-22T10:22:21.802Z,42.62
2022-08-22T10:25:02.504Z,42.95
2022-08-22T10:27:52.635Z,42.33
2022-08-22T10:30:26.133Z,42.84
2022-08-22T10:33:03.260Z,42.97
2022-08-22T10:35:40.684Z,42.82
2022-08-22T10:38:14.274Z,43.24
2022-08-22T10:40:48.310Z,42.46
2022-08-22T10:43:20.911Z,42.08
2022-08-22T10:46:04.017Z,41.95
2022-08-22T10:48:47.828Z,41.60
2022-08-22T10:51:28.849Z,42.18
2022-08-22T10:54:20.321Z,41.50
2022-08-22T10:56:55.477Z,42.39
2022-08-22T10:59:41.164Z,41.58
2022-08-22T11:02:44.799Z,40.55
2022-08-22T11:05:28.579Z,40.77
2022-08-22T11:08:08.156Z,41.33
2022-08-22T11:10:52.276Z,40.90
2022-08-22T11:13:29.020Z,40.89
2022-08-22T11:16:04.143Z,41.17
2022-08-22T11:19:04.911Z,40.22
2022-08-22T11:21:51.032Z,40.03
2022-08-22T11:25:05.188Z,38.23
2022-08-22T11:27:43.516Z,38.76
2022-08-22T11:30:18.799Z,39.75
2022-08-22T11:33:13.777Z,39.73
2022-08-22T11:35:48.597Z,39.40
2022-08-22T11:38:30.647Z,38.68
2022-08-22T11:41:05.115Z,39.36
2022-08-22T11:43:47.218Z,39.20
2022-08-22T11:46:22.632Z,38.93
2022-08-22T11:49:06.350Z,39.10
2022-08-22T11:51:57.562Z,38.43
2022-08-22T11:54:34.214Z,38.88
2022-08-22T11:57:08.155Z,39.15
2022-08-22T12:00:05.237Z,38.65
2022-08-22T12:02:48.565Z,38.17
2022-08-22T12:05:26.142Z,38.31
2022-08-22T12:07:58.037Z,38.92
2022-08-22T12:10:31.392Z,37.78
2022-08-22T12:13:05.280Z,37.58
2022-08-22T12:15:43.585Z,37.62
2022-08-22T12:18:42.209Z,37.45
2022-08-22T12:21:32.439Z,37.42
2022-08-22T12:24:32.443Z,36.90
2022-08-22T12:27:28.537Z,37.01
2022-08-22T12:30:13.767Z,37.41
2022-08-22T12:33:22.909Z,37.42
2022-08-22T12:36:03.054Z,37.46
2022-08-22T12:38:49.561Z,36.12
2022-08-22T12:41:35.525Z,37.18
2022-08-22T12:44:27.242Z,36.69
2022-08-22T12:47:09.862Z,36.51
2022-08-22T12:49:58.150Z,36.44
2022-08-22T12:52:42.131Z,36.69
2022-08-22T12:55:24.921Z,36.90
2022-08-22T12:58:03.365Z,36.89
2022-08-22T13:00:35.558Z,36.52
2022-08-22T13:03:08.217Z,35.79
2022-08-22T13:05:41.289Z,35.65
2022-08-22T13:08:17.639Z,35.94
2022-08-22T13:10:48.884Z,35.50
2022-08-22T13:13:31.630Z,36.05
2022-08-22T13:16:08.350Z,35.86
2022-08-22T13:18:44.816Z,35.76
2022-08-22T13:21:17.603Z,36.02
2022-08-22T13:23:54.044Z,35.09
2022-08-22T13:26:33.209Z,35.10
2022-08-22T13:29:25.323Z,35.42
2022-08-22T13:32:00.275Z,35.42
2022-08-22T13:34:39.651Z,35.36
2022-08-22T13:37:16.677Z,35.25
2022-08-22T13:39:48.929Z,36.29
2022-08-22T13:42:30.382Z,35.97
2022-08-22T13:45:02.546Z,36.09
2022-08-22T13:47:34.379Z,35.56
2022-08-22T13:50:13.883Z,36.07
2022-08-22T13:52:52.276Z,35.75
2022-08-22T13:55:27.643Z,35.93
2022-08-22T13:58:04.601Z,36.16
2022-08-22T14:01:10.601Z,35.98
2022-08-22T14:03:48.604Z,36.05
2022-08-22T14:06:37.153Z,34.74
2022-08-22T14:09:27.917Z,35.26
2022-08-22T14:12:12.638Z,35.74
2022-08-22T14:14:45.873Z,34.76
2022-08-22T14:17:18.268Z,35.16
2022-08-22T14:19:52.878Z,34.73
2022-08-22T14:22:35.205Z,35.35
2022-08-22T14:25:09.163Z,34.66
2022-08-22T14:27:41.743Z,34.41
2022-08-22T14:30:17.114Z,34.36
2022-08-22T14:32:51.458Z,34.63
2022-08-22T14:35:34.794Z,34.70
2022-08-22T14:38:21.172Z,33.93
2022-08-22T14:41:03.383Z,33.71
2022-08-22T14:43:51.011Z,33.30
2022-08-22T14:46:26.414Z,33.13
2022-08-22T14:49:14.750Z,33.76
2022-08-22T14:51:50.843Z,33.45
2022-08-22T14:54:21.932Z,33.93
2022-08-22T14:56:54.210Z,33.64
2022-08-22T14:59:41.015Z,33.55
2022-08-22T15:02:15.388Z,33.82
2022-08-22T15:04:46.695Z,33.32
2022-08-22T15:07:24.202Z,33.69
2022-08-22T15:09:55.759Z,33.70
2022-08-22T15:12:29.499Z,33.27
2022-08-22T15:14:59.606Z,33.12
2022-08-22T15:17:44.327Z,33.51
2022-08-22T15:20:27.926Z,33.43
2022-08-22T15:22:58.350Z,32.64
2022-08-22T15:25:31.256Z,33.25
2022-08-22T15:28:05.056Z,33.63
2022-08-22T15:30:44.292Z,33.24
2022-08-22T15:33:17.314Z,33.75
2022-08-22T15:35:47.299Z,33.34
2022-08-22T15:38:32.327Z,33.30
2022-08-22T15:41:36.140Z,33.19
2022-08-22T15:44:14.860Z,33.81
2022-08-22T15:47:11.945Z,34.01
2022-08-22T15:49:55.735Z,33.47
2022-08-22T15:52:26.084Z,33.82
2022-08-22T15:55:23.429Z,33.56
2022-08-22T15:58:02.552Z,33.72
2022-08-22T16:00:44.957Z,33.67
2022-08-22T16:03:26.183Z,33.46
2022-08-22T16:05:58.491Z,33.67
2022-08-22T16:08:32.774Z,33.42
2022-08-22T16:11:28.509Z,33.17
2022-08-22T16:14:22.800Z,34.04
2022-08-22T16:16:59.927Z,34.01
2022-08-22T16:19:29.629Z,34.30
2022-08-22T16:22:10.421Z,34.35
2022-08-22T16:24:58.484Z,34.05
2022-08-22T16:27:27.879Z,33.89
2022-08-22T16:30:08.041Z,34.32
2022-08-22T16:32:40.474Z,34.31
2022-08-22T16:35:08.770Z,34.48
2022-08-22T16:37:50.263Z,34.61
2022-08-22T16:40:27.434Z,35.01
2022-08-22T16:43:16.110Z,34.89
2022-08-22T16:45:46.099Z,35.22
2022-08-22T16:48:27.578Z,35.21
2022-08-22T16:51:14.861Z,34.97
2022-08-22T16:54:09.162Z,35.13
2022-08-22T16:57:02.205Z,35.03
2022-08-22T16:59:44.025Z,35.47
2022-08-22T17:02:34.099Z,35.39
2022-08-22T17:05:16.302Z,35.46
2022-08-22T17:07:57.070Z,35.26
2022-08-22T17:10:37.471Z,35.53
2022-08-22T17:13:18.381Z,35.72
2022-08-22T17:16:01.992Z,35.76
2022-08-22T17:18:48.364Z,35.02
2022-08-22T17:21:26.049Z,35.69
2022-08-22T17:24:02.883Z,35.31
2022-08-22T17:26:47.009Z,35.47
2022-08-22T17:29:24.489Z,35.65
2022-08-22T17:32:02.734Z,36.05
2022-08-22T17:34:39.549Z,35.82
2022-08-22T17:37:18.052Z,36.15
2022-08-22T17:39:59.753Z,36.24
2022-08-22T17:42:43.262Z,36.53
2022-08-22T17:45:23.412Z,36.83
2022-08-22T17:48:01.964Z,36.99
2022-08-22T17:50:39.354Z,37.31
2022-08-22T17:53:16.332Z,37.74
2022-08-22T17:55:58.835Z,38.09
2022-08-22T17:58:35.681Z,38.02
2022-08-22T18:01:16.557Z,38.12
2022-08-22T18:03:51.816Z,38.53
2022-08-22T18:06:23.685Z,38.47
2022-08-22T18:11:47.394Z,38.54
2022-08-22T18:14:25.807Z,38.83
2022-08-22T18:16:55.733Z,38.64
2022-08-22T18:19:40.542Z,38.88
2022-08-22T18:22:12.183Z,38.59
2022-08-22T18:24:58.589Z,38.82
2022-08-22T18:27:34.575Z,39.17
2022-08-22T18:30:15.320Z,39.23
2022-08-22T18:32:51.822Z,39.22
2022-08-22T18:35:24.359Z,39.22
2022-08-22T18:37:59.005Z,39.21
2022-08-22T18:40:34.504Z,39.45
2022-08-22T18:43:14.034Z,39.49
2022-08-22T18:46:28.802Z,40.01
2022-08-22T18:49:15.246Z,39.78
2022-08-22T18:51:44.371Z,40.21
2022-08-22T18:54:34.761Z,40.46
2022-08-22T18:57:25.193Z,40.30
2022-08-22T19:00:05.259Z,40.67
2022-08-22T19:03:04.621Z,40.82
2022-08-22T19:06:06.654Z,40.99
2022-08-22T19:08:53.832Z,41.17
2022-08-22T19:11:37.248Z,41.11
2022-08-22T19:14:33.385Z,41.31
2022-08-22T19:17:34.504Z,41.48
2022-08-22T19:20:25.484Z,41.43
2022-08-22T19:23:34.116Z,41.46
2022-08-22T19:26:25.745Z,41.65
2022-08-22T19:28:56.168Z,41.70
2022-08-22T19:31:42.896Z,41.97
2022-08-22T19:34:17.782Z,41.83
2022-08-22T19:36:46.862Z,41.86
2022-08-22T19:39:50.556Z,42.12
2022-08-22T19:42:39.934Z,42.08
2022-08-22T19:45:23.436Z,42.24
2022-08-22T19:47:58.241Z,42.25
2022-08-22T19:50:34.098Z,42.48
2022-08-22T19:53:24.574Z,42.69
2022-08-22T19:56:05.835Z,42.68
2022-08-22T19:58:50.351Z,42.78
2022-08-22T20:01:42.377Z,43.05
2022-08-22T20:04:26.288Z,42.95
2022-08-22T20:07:00.537Z,43.00
2022-08-22T20:09:41.825Z,43.30
2022-08-22T20:12:15.959Z,43.20
2022-08-22T20:14:48.403Z,43.25
2022-08-22T20:17:40.159Z,43.39
2022-08-22T20:20:18.154Z,43.30
2022-08-22T20:22:52.832Z,43.45
2022-08-22T20:25:42.278Z,43.48
2022-08-22T20:28:31.211Z,43.55
2022-08-22T20:31:02.222Z,43.53
2022-08-22T20:33:37.986Z,43.74
2022-08-22T20:36:16.705Z,43.90
2022-08-22T20:38:59.799Z,44.03
2022-08-22T20:41:33.461Z,44.04
2022-08-22T20:44:11.117Z,44.11
2022-08-22T20:46:57.576Z,44.24
2022-08-22T20:49:29.389Z,44.29
2022-08-22T20:51:59.503Z,44.49
2022-08-22T20:54:30.442Z,44.50
2022-08-22T20:57:01.441Z,44.52
2022-08-22T20:59:35.926Z,44.66
2022-08-22T21:02:15.658Z,44.91
2022-08-22T21:04:53.445Z,45.03
2022-08-22T21:07:23.132Z,45.06
2022-08-22T21:10:22.777Z,45.30
2022-08-22T21:13:12.328Z,45.63
2022-08-22T21:15:42.539Z,45.35
2022-08-22T21:18:13.095Z,45.69
2022-08-22T21:20:41.722Z,45.61
2022-08-22T21:23:20.815Z,45.80
2022-08-22T21:25:54.343Z,46.04
2022-08-22T21:28:31.566Z,46.14
2022-08-22T21:31:01.578Z,46.11
2022-08-22T21:33:30.823Z,46.44
2022-08-22T21:36:01.048Z,46.38
2022-08-22T21:38:29.191Z,46.38
2022-08-22T21:41:02.766Z,46.64
2022-08-22T21:43:33.775Z,46.75
2022-08-22T21:46:01.652Z,46.90
2022-08-22T21:48:44.144Z,47.21
2022-08-22T21:51:32.871Z,47.42
2022-08-22T21:54:39.950Z,47.63
2022-08-22T21:57:38.010Z,47.77
2022-08-22T22:00:12.706Z,47.65
2022-08-22T22:02:43.690Z,47.97
2022-08-22T22:05:17.142Z,47.79
2022-08-22T22:07:46.964Z,48.14
2022-08-22T22:10:17.348Z,47.88
2022-08-22T22:12:47.283Z,48.23
2022-08-22T22:15:18.493Z,48.24
2022-08-22T22:17:46.462Z,48.29
2022-08-22T22:20:17.562Z,48.20
2022-08-22T22:22:47.066Z,48.74
2022-08-22T22:25:39.563Z,48.65
2022-08-22T22:28:07.745Z,48.63
2022-08-22T22:30:36.101Z,48.71
2022-08-22T22:33:03.933Z,49.00
2022-08-22T22:35:33.588Z,49.03
2022-08-22T22:38:02.087Z,48.93
2022-08-22T22:40:30.397Z,49.05
2022-08-22T22:42:58.195Z,49.34
2022-08-22T22:45:26.006Z,49.29
2022-08-22T22:47:53.801Z,49.78
2022-08-22T22:50:21.676Z,49.65
2022-08-22T22:52:50.818Z,49.91
2022-08-22T22:55:25.059Z,49.90
2022-08-22T22:57:59.888Z,49.99
2022-08-22T23:00:31.123Z,50.22
2022-08-22T23:03:00.016Z,49.80
2022-08-22T23:05:27.916Z,49.96
2022-08-22T23:07:57.207Z,50.20
2022-08-22T23:10:25.200Z,50.38
2022-08-22T23:12:52.991Z,50.08
2022-08-22T23:15:21.014Z,50.31
2022-08-22T23:17:48.773Z,50.48
2022-08-22T23:20:16.542Z,50.37
2022-08-22T23:22:45.012Z,50.54
2022-08-22T23:25:14.525Z,50.62
2022-08-22T23:27:42.276Z,50.88
2022-08-22T23:30:11.573Z,50.98
2022-08-22T23:32:39.666Z,51.23
2022-08-22T23:35:08.329Z,51.35
2022-08-22T23:37:36.060Z,51.46
2022-08-22T23:40:07.329Z,51.41
2022-08-22T23:42:36.608Z,51.38
2022-08-22T23:45:04.933Z,51.88
2022-08-22T23:47:32.787Z,52.00
2022-08-22T23:50:06.245Z,52.21
2022-08-22T23:52:34.436Z,52.07
2022-08-22T23:55:02.230Z,52.55
2022-08-22T23:57:30.010Z,52.89
2022-08-22T23:59:59.776Z,53.11
